Time;durP1;ratioP1;P1;durP2;ratioP2;P2;SDS_P1;SDS_P2;PMS_P1;PMS_P2;Temp;Humidity;BMP_temperature;BMP_pressure;BME280_temperature;BME280_humidity;BME280_pressure;Samples;Min_cycle;Max_cycle;Signal;HPM_P1;HPM_P2
2022/11/21 00:12:45;;;;;;;14.68;8.68;;;1.70;99.90;;;;;;5040757;28;20042;-74
2022/11/21 00:18:36;;;;;;;13.93;7.93;;;1.70;99.90;;;;;;5039425;28;20547;-74
2022/11/21 00:24:28;;;;;;;12.60;7.22;;;1.60;99.90;;;;;;5038753;28;19916;-74
2022/11/21 00:27:19;;;;;;;14.63;7.78;;;1.40;99.90;;;;;;5019549;28;20037;-74
2022/11/21 00:29:45;;;;;;;11.52;7.75;;;1.40;99.90;;;;;;5038629;28;20052;-74
2022/11/21 00:32:14;;;;;;;15.50;7.97;;;1.40;99.90;;;;;;5020645;28;20025;-75
2022/11/21 00:42:07;;;;;;;15.48;8.95;;;1.40;99.90;;;;;;5037620;28;20465;-74
2022/11/21 00:44:40;;;;;;;16.80;8.63;;;1.40;99.90;;;;;;5019752;28;20032;-74
2022/11/21 00:47:05;;;;;;;13.93;8.57;;;1.40;99.90;;;;;;5038362;28;20056;-74
2022/11/21 00:49:31;;;;;;;14.95;9.75;;;1.40;99.90;;;;;;5037639;28;20025;-75
2022/11/21 00:55:24;;;;;;;14.55;9.15;;;1.40;99.90;;;;;;5038012;28;20401;-74
2022/11/21 00:57:50;;;;;;;18.38;9.95;;;1.40;99.90;;;;;;5019363;28;20055;-74
2022/11/21 01:00:24;;;;;;;20.98;11.23;;;1.30;99.90;;;;;;5037130;28;20473;-74
2022/11/21 01:03:26;;;;;;;20.83;9.98;;;1.30;99.90;;;;;;5019165;28;20566;-74
2022/11/21 01:05:52;;;;;;;16.15;9.07;;;1.30;99.90;;;;;;5018927;28;20030;-75
2022/11/21 01:08:17;;;;;;;15.73;8.60;;;1.30;99.90;;;;;;5018553;28;20083;-74
2022/11/21 01:10:52;;;;;;;18.85;8.95;;;1.40;99.90;;;;;;5036447;28;20457;-74
2022/11/21 01:24:27;;;;;;;17.40;9.43;;;1.30;99.90;;;;;;5034943;28;20030;-74
2022/11/21 01:55:36;;;;;;;16.85;9.45;;;1.00;99.90;;;;;;5016478;28;20268;-75
2022/11/21 02:05:26;;;;;;;15.25;8.25;;;1.10;99.90;;;;;;5018401;28;20502;-74
2022/11/21 02:14:46;;;;;;;16.42;8.35;;;1.20;99.90;;;;;;5016019;28;20041;-74
2022/11/21 02:21:14;;;;;;;12.80;7.05;;;1.20;99.90;;;;;;5015756;28;20133;-74
2022/11/21 02:27:03;;;;;;;10.38;6.63;;;1.10;99.90;;;;;;5036152;28;20539;-74
2022/11/21 03:10:03;;;;;;;14.02;7.43;;;0.80;99.90;;;;;;5020196;28;20084;-75
2022/11/21 03:12:29;;;;;;;13.65;7.50;;;0.90;99.90;;;;;;5003726;28;20064;-75
2022/11/21 03:15:00;;;;;;;12.75;7.53;;;0.90;99.90;;;;;;5023347;28;20033;-75
2022/11/21 03:24:22;;;;;;;14.13;7.95;;;1.00;99.90;;;;;;5040421;28;20041;-74
2022/11/21 03:37:11;;;;;;;10.88;6.13;;;1.10;99.90;;;;;;5041774;28;20401;-74
2022/11/21 03:43:05;;;;;;;10.25;6.00;;;1.20;99.90;;;;;;5040756;28;20465;-74
2022/11/21 03:59:29;;;;;;;11.23;5.63;;;1.30;99.90;;;;;;5039282;28;20408;-76
2022/11/21 04:06:16;;;;;;;9.27;5.40;;;1.40;99.90;;;;;;5039698;28;20040;-75
2022/11/21 04:15:30;;;;;;;8.82;5.63;;;1.50;99.90;;;;;;5039717;28;20113;-75
2022/11/21 04:28:12;;;;;;;5.57;4.20;;;1.60;99.90;;;;;;5037935;28;20477;-75
2022/11/21 04:31:21;;;;;;;9.65;6.07;;;1.70;99.90;;;;;;5020994;28;20128;-75
2022/11/21 04:36:50;;;;;;;8.93;4.93;;;2.20;99.90;;;;;;5039482;28;19913;-75
2022/11/21 04:39:54;;;;;;;6.95;4.80;;;2.30;99.90;;;;;;5040508;28;20029;-74
2022/11/21 04:42:20;;;;;;;9.02;4.93;;;2.50;99.90;;;;;;5021801;28;20029;-75
2022/11/21 04:44:45;;;;;;;10.32;5.13;;;2.70;99.90;;;;;;5023468;28;20026;-77
2022/11/21 04:54:04;;;;;;;7.63;5.68;;;2.80;99.90;;;;;;5042942;28;20037;-75
2022/11/21 04:56:30;;;;;;;12.32;6.20;;;2.90;99.90;;;;;;5041190;28;20048;-76
2022/11/21 04:58:56;;;;;;;10.65;6.15;;;2.90;99.90;;;;;;5024590;28;20029;-75
2022/11/21 05:01:21;;;;;;;17.60;5.45;;;2.90;99.90;;;;;;5042947;28;20048;-76
2022/11/21 05:03:47;;;;;;;8.68;4.80;;;2.90;99.90;;;;;;5025243;28;20029;-76
2022/11/21 05:06:13;;;;;;;12.88;5.32;;;2.90;99.90;;;;;;5042482;28;20105;-76
2022/11/21 05:08:38;;;;;;;11.10;4.80;;;2.90;99.90;;;;;;5041402;28;20057;-76
2022/11/21 05:13:48;;;;;;;10.57;4.95;;;3.20;99.90;;;;;;5040833;28;20040;-76
2022/11/21 05:16:16;;;;;;;8.25;4.97;;;3.00;99.90;;;;;;5023046;28;20030;-76
2022/11/21 05:18:42;;;;;;;12.85;4.63;;;3.00;99.90;;;;;;5023037;28;20469;-76
2022/11/21 05:21:08;;;;;;;17.98;5.80;;;3.10;99.90;;;;;;5040521;28;20044;-74
2022/11/21 05:23:33;;;;;;;17.00;7.05;;;3.10;99.90;;;;;;5040450;28;20022;-75
2022/11/21 05:25:59;;;;;;;16.98;6.07;;;3.10;99.90;;;;;;5041294;28;20026;-74
2022/11/21 05:28:25;;;;;;;17.58;6.25;;;3.10;99.90;;;;;;5022191;28;20026;-76
2022/11/21 05:30:50;;;;;;;16.05;6.75;;;3.10;99.90;;;;;;5022028;28;20026;-77
2022/11/21 05:33:22;;;;;;;14.48;6.75;;;3.10;99.90;;;;;;5023913;28;20045;-78
2022/11/21 05:35:47;;;;;;;8.80;5.65;;;3.20;99.90;;;;;;5040519;28;20082;-76
2022/11/21 05:38:13;;;;;;;15.85;6.78;;;3.20;99.90;;;;;;5041263;28;20040;-74
2022/11/21 05:40:39;;;;;;;12.60;7.68;;;3.20;99.90;;;;;;5041720;28;20033;-73
2022/11/21 05:45:49;;;;;;;15.48;7.20;;;3.10;99.90;;;;;;5038284;28;20087;-72
2022/11/21 05:48:15;;;;;;;18.48;8.82;;;3.10;99.90;;;;;;5050582;28;20025;-72
2022/11/21 05:50:41;;;;;;;23.23;9.13;;;3.00;99.90;;;;;;5058831;28;20542;-72
2022/11/21 05:53:07;;;;;;;13.27;7.95;;;3.00;99.90;;;;;;5059389;28;20017;-72
2022/11/21 05:55:33;;;;;;;15.57;8.93;;;3.00;99.90;;;;;;5042336;28;20032;-72
2022/11/21 05:57:59;;;;;;;12.38;6.00;;;3.00;99.90;;;;;;5063905;28;20036;-72
2022/11/21 06:00:27;;;;;;;7.32;3.97;;;3.10;99.90;;;;;;5064012;28;20029;-72
2022/11/21 06:05:36;;;;;;;7.85;3.42;;;3.10;99.90;;;;;;5050972;28;20127;-72
2022/11/21 06:08:02;;;;;;;4.80;3.10;;;3.10;99.90;;;;;;5060835;28;20127;-72
2022/11/21 06:10:28;;;;;;;6.32;3.25;;;3.10;99.90;;;;;;5044522;28;20049;-72
2022/11/21 06:12:53;;;;;;;6.25;3.50;;;3.20;99.90;;;;;;5060970;28;20025;-72
2022/11/21 06:15:19;;;;;;;11.00;4.40;;;3.30;99.90;;;;;;5060480;28;20029;-71
2022/11/21 06:17:45;;;;;;;12.20;3.58;;;3.30;99.90;;;;;;5060663;28;20025;-71
2022/11/21 06:20:10;;;;;;;13.40;5.18;;;3.40;99.90;;;;;;5042067;28;20071;-71
2022/11/21 06:22:36;;;;;;;9.55;3.10;;;3.50;99.90;;;;;;5057994;28;20112;-71
2022/11/21 06:25:02;;;;;;;5.78;2.78;;;3.50;99.90;;;;;;5040572;28;20049;-71
2022/11/21 06:27:28;;;;;;;8.25;4.03;;;3.50;99.90;;;;;;5059871;28;20075;-71
2022/11/21 06:29:54;;;;;;;8.88;2.75;;;3.50;99.90;;;;;;5058657;28;20025;-71
2022/11/21 06:32:20;;;;;;;7.28;3.63;;;3.50;99.90;;;;;;5058715;28;20032;-71
2022/11/21 06:34:45;;;;;;;4.68;2.53;;;3.50;99.90;;;;;;5057469;28;20025;-71
2022/11/21 06:37:11;;;;;;;8.70;3.88;;;3.50;99.90;;;;;;5040902;28;20037;-71
2022/11/21 06:39:36;;;;;;;8.00;3.03;;;3.40;99.90;;;;;;5058051;28;20079;-71
2022/11/21 06:42:02;;;;;;;7.97;2.95;;;3.50;99.90;;;;;;5040741;28;20473;-71
2022/11/21 06:44:28;;;;;;;3.25;2.28;;;3.50;99.90;;;;;;5058422;28;20025;-71
2022/11/21 06:46:54;;;;;;;4.53;2.88;;;3.50;99.90;;;;;;5040009;28;20051;-71
2022/11/21 06:49:21;;;;;;;10.45;3.67;;;3.60;99.90;;;;;;5039884;28;20025;-71
2022/11/21 06:51:46;;;;;;;7.10;3.95;;;3.60;99.90;;;;;;5058394;28;20047;-71
2022/11/21 06:54:12;;;;;;;6.93;4.20;;;3.60;99.90;;;;;;5041552;28;20441;-71
2022/11/21 06:56:38;;;;;;;8.20;4.13;;;3.60;99.90;;;;;;5057472;28;20032;-71
2022/11/21 06:59:03;;;;;;;6.10;3.80;;;3.60;99.90;;;;;;5040622;28;20123;-71
2022/11/21 07:01:29;;;;;;;10.23;4.10;;;3.50;99.90;;;;;;5041273;28;20031;-71
2022/11/21 07:03:55;;;;;;;7.55;4.47;;;3.50;99.90;;;;;;5058422;28;20032;-71
2022/11/21 07:06:21;;;;;;;5.68;3.97;;;3.50;99.90;;;;;;5059108;28;20374;-71
2022/11/21 07:08:46;;;;;;;9.52;4.57;;;3.60;99.90;;;;;;5040474;28;20072;-71
2022/11/21 07:11:13;;;;;;;9.55;4.85;;;3.70;99.90;;;;;;5040736;28;20064;-71
2022/11/21 07:13:39;;;;;;;9.68;4.53;;;3.70;99.90;;;;;;5058952;28;20096;-71
2022/11/21 07:16:13;;;;;;;7.72;3.33;;;3.70;99.90;;;;;;5041992;28;20056;-71
2022/11/21 07:18:39;;;;;;;6.43;1.30;;;3.80;99.90;;;;;;5041088;28;20048;-70
2022/11/21 07:21:06;;;;;;;8.70;3.65;;;3.90;99.90;;;;;;5059582;28;20052;-71
2022/11/21 07:23:33;;;;;;;6.63;4.53;;;4.00;99.90;;;;;;5059309;28;20469;-71
2022/11/21 07:26:03;;;;;;;8.45;4.60;;;4.00;99.90;;;;;;5060419;28;20029;-71
2022/11/21 07:28:30;;;;;;;9.10;3.78;;;4.00;99.90;;;;;;5063602;28;20056;-72
2022/11/21 07:30:56;;;;;;;10.20;4.15;;;4.10;99.90;;;;;;5064208;28;20466;-73
2022/11/21 07:33:22;;;;;;;10.10;4.22;;;4.10;99.90;;;;;;5062529;28;20109;-71
2022/11/21 07:35:47;;;;;;;11.07;4.22;;;4.20;99.90;;;;;;5060078;28;20056;-71
2022/11/21 07:38:13;;;;;;;7.75;4.18;;;4.20;99.90;;;;;;5058761;28;20025;-71
2022/11/21 07:40:39;;;;;;;5.28;3.75;;;4.30;99.90;;;;;;5039334;28;20171;-71
2022/11/21 07:43:05;;;;;;;8.73;4.43;;;4.30;99.90;;;;;;5057835;28;20448;-71
2022/11/21 07:45:32;;;;;;;7.57;3.97;;;4.30;99.90;;;;;;5056496;28;20443;-71
2022/11/21 07:47:58;;;;;;;8.68;4.60;;;4.40;99.90;;;;;;5038036;28;20029;-70
2022/11/21 07:50:24;;;;;;;8.95;5.22;;;4.50;99.90;;;;;;5037320;28;20125;-70
2022/11/21 07:52:50;;;;;;;7.95;4.78;;;4.50;99.90;;;;;;5037545;28;20048;-70
2022/11/21 07:55:16;;;;;;;9.07;5.20;;;4.60;99.90;;;;;;5054759;28;20056;-71
2022/11/21 07:57:42;;;;;;;7.30;4.28;;;4.70;99.90;;;;;;5036557;28;20070;-70
2022/11/21 08:00:08;;;;;;;8.75;4.18;;;4.70;99.90;;;;;;5036991;28;20029;-70
2022/11/21 08:02:34;;;;;;;6.80;4.38;;;4.80;99.90;;;;;;5037938;28;20037;-70
2022/11/21 08:05:00;;;;;;;10.77;5.40;;;4.90;99.90;;;;;;5038639;28;20112;-70
2022/11/21 08:07:26;;;;;;;10.30;5.03;;;5.00;99.90;;;;;;5057407;28;20025;-70
2022/11/21 08:09:51;;;;;;;8.63;4.38;;;5.10;99.90;;;;;;5061458;28;20041;-71
2022/11/21 08:12:17;;;;;;;7.05;3.95;;;5.20;99.90;;;;;;5063324;28;20453;-70
2022/11/21 08:14:43;;;;;;;6.40;3.53;;;5.20;99.90;;;;;;5062345;28;20032;-70
2022/11/21 08:17:08;;;;;;;7.78;3.83;;;5.30;99.90;;;;;;5042449;28;20028;-70
2022/11/21 08:19:34;;;;;;;9.02;4.50;;;5.40;99.90;;;;;;5042104;28;20039;-74
2022/11/21 08:22:00;;;;;;;6.00;3.60;;;5.50;99.90;;;;;;5041725;28;20025;-70
2022/11/21 08:24:26;;;;;;;2.47;2.28;;;5.60;99.90;;;;;;5058553;28;20373;-69
2022/11/21 08:26:52;;;;;;;1.67;1.00;;;5.70;99.90;;;;;;5042620;28;20033;-69
2022/11/21 08:29:18;;;;;;;1.75;0.70;;;5.80;99.90;;;;;;5041481;28;20068;-69
2022/11/21 08:31:44;;;;;;;2.63;1.38;;;6.00;99.90;;;;;;5057997;28;20025;-69
2022/11/21 08:34:11;;;;;;;0.68;0.68;;;6.20;99.90;;;;;;5040585;28;20052;-70
2022/11/21 08:36:36;;;;;;;4.95;0.45;;;6.30;99.90;;;;;;5057884;28;20025;-70
2022/11/21 08:39:03;;;;;;;2.80;0.50;;;6.50;99.90;;;;;;5056972;28;20044;-70
2022/11/21 08:44:13;;;;;;;0.82;0.50;;;6.70;99.90;;;;;;5057806;28;20032;-70
2022/11/21 08:46:39;;;;;;;2.60;0.55;;;6.70;99.90;;;;;;5058754;28;20025;-72
2022/11/21 08:49:06;;;;;;;1.48;0.60;;;6.80;99.90;;;;;;5058024;28;20063;-69
2022/11/21 08:51:32;;;;;;;0.65;0.43;;;6.90;99.90;;;;;;5039786;28;20063;-70
2022/11/21 08:53:58;;;;;;;1.30;0.40;;;6.90;99.90;;;;;;5039301;28;20029;-69
2022/11/21 08:56:24;;;;;;;0.98;0.30;;;7.00;99.90;;;;;;5056694;28;20358;-69
2022/11/21 08:58:50;;;;;;;2.05;0.47;;;7.00;99.90;;;;;;5056682;28;20059;-69
2022/11/21 09:01:15;;;;;;;1.63;0.40;;;7.10;99.90;;;;;;5057206;28;20025;-69
2022/11/21 09:03:41;;;;;;;3.65;0.75;;;7.20;99.90;;;;;;5056456;28;20051;-61
2022/11/21 09:06:07;;;;;;;1.80;0.57;;;7.30;99.90;;;;;;5055663;28;20083;-61
2022/11/21 09:08:32;;;;;;;2.65;0.80;;;7.50;99.90;;;;;;5055767;28;20032;-61
2022/11/21 09:11:05;;;;;;;1.80;0.93;;;7.60;99.90;;;;;;5055923;28;20354;-61
2022/11/21 09:13:32;;;;;;;3.53;0.65;;;7.80;99.90;;;;;;5055668;28;20087;-61
2022/11/21 09:18:43;;;;;;;3.22;0.28;;;8.30;99.90;;;;;;5056586;28;20416;-71
2022/11/21 09:22:05;;;;;;;2.35;0.40;;;8.80;99.90;;;;;;5058567;28;20029;-71
2022/11/21 09:25:16;;;;;;;0.77;0.47;;;9.30;99.90;;;;;;5057363;28;20061;-70
2022/11/21 09:27:41;;;;;;;4.53;0.57;;;9.70;99.90;;;;;;5055610;28;20037;-67
2022/11/21 09:30:07;;;;;;;1.25;0.50;;;10.00;99.90;;;;;;5055579;28;20040;-67
2022/11/21 09:32:33;;;;;;;1.63;0.28;;;9.90;99.90;;;;;;5037100;28;20394;-67
2022/11/21 09:34:58;;;;;;;2.25;0.55;;;9.60;99.90;;;;;;5037548;28;20116;-70
2022/11/21 09:37:24;;;;;;;3.17;0.10;;;9.30;99.90;;;;;;5039819;28;20159;-70
2022/11/21 09:39:50;;;;;;;3.97;0.35;;;9.30;99.90;;;;;;5057286;28;20082;-69
2022/11/21 09:42:30;;;;;;;1.73;0.40;;;9.50;99.90;;;;;;5057834;28;20029;-69
2022/11/21 09:45:12;;;;;;;1.38;0.30;;;9.60;99.90;;;;;;5039193;28;20033;-68
2022/11/21 09:47:43;;;;;;;2.30;0.40;;;9.80;99.90;;;;;;5056230;28;20025;-70
2022/11/21 09:50:11;;;;;;;0.57;0.20;;;9.80;99.90;;;;;;5056525;28;20104;-69
2022/11/21 09:52:50;;;;;;;1.35;0.47;;;9.70;99.90;;;;;;5056495;28;20021;-69
2022/11/21 09:55:25;;;;;;;0.70;0.20;;;9.60;99.90;;;;;;5038604;28;20033;-69
2022/11/21 09:57:50;;;;;;;2.92;0.45;;;9.70;99.90;;;;;;5056753;28;20029;-69
2022/11/21 10:00:22;;;;;;;2.78;0.22;;;9.90;99.90;;;;;;5056135;28;20035;-68
2022/11/21 10:02:49;;;;;;;1.95;0.30;;;10.10;99.90;;;;;;5055526;28;20087;-69
2022/11/21 10:05:15;;;;;;;2.25;0.30;;;10.50;99.90;;;;;;5055252;28;20420;-68
2022/11/21 10:07:42;;;;;;;1.50;0.20;;;10.80;99.90;;;;;;5054875;28;20037;-69
2022/11/21 10:10:21;;;;;;;1.05;0.10;;;11.30;99.90;;;;;;5054252;28;20083;-68
2022/11/21 10:12:58;;;;;;;1.80;0.20;;;11.50;99.90;;;;;;5054688;28;20090;-68
2022/11/21 10:15:37;;;;;;;2.33;0.20;;;11.20;99.30;;;;;;5054236;28;20021;-67
2022/11/21 10:18:40;;;;;;;1.15;0.20;;;10.90;99.90;;;;;;5037367;28;20338;-67
2022/11/21 10:21:31;;;;;;;1.67;0.15;;;10.60;99.90;;;;;;5054065;28;20029;-68
2022/11/21 10:24:00;;;;;;;3.40;0.43;;;10.40;99.90;;;;;;5043169;28;20124;-68
2022/11/21 10:26:41;;;;;;;0.95;0.30;;;10.30;99.90;;;;;;5036473;28;20025;-68
2022/11/21 10:29:15;;;;;;;1.67;0.55;;;10.00;99.90;;;;;;5036491;28;20384;-67
2022/11/21 10:31:42;;;;;;;0.28;0.20;;;9.80;99.90;;;;;;5053847;28;20037;-68
2022/11/21 10:34:19;;;;;;;0.95;0.17;;;9.80;99.90;;;;;;5054173;28;20086;-68
2022/11/21 10:36:49;;;;;;;3.40;0.38;;;9.70;99.90;;;;;;5054485;28;20032;-68
2022/11/21 10:39:34;;;;;;;2.53;0.38;;;9.60;99.90;;;;;;5054692;28;20029;-69
2022/11/21 10:42:09;;;;;;;2.60;0.32;;;9.30;99.90;;;;;;5054058;28;20536;-69
2022/11/21 10:47:29;;;;;;;4.30;0.30;;;9.10;99.90;;;;;;5054286;28;20220;-68
2022/11/21 10:50:19;;;;;;;2.10;0.20;;;9.00;99.90;;;;;;5054518;28;20027;-69
2022/11/21 10:52:48;;;;;;;2.13;0.57;;;8.90;99.90;;;;;;5044339;28;20159;-69
2022/11/21 10:55:16;;;;;;;4.72;0.50;;;8.70;99.90;;;;;;5054944;28;20037;-70
2022/11/21 10:57:50;;;;;;;0.60;0.20;;;8.60;99.90;;;;;;5036865;28;20175;-71
2022/11/21 11:00:24;;;;;;;2.63;0.35;;;8.60;99.90;;;;;;5037078;28;20392;-69
2022/11/21 11:03:00;;;;;;;1.10;0.20;;;8.50;99.90;;;;;;5054151;28;20029;-69
2022/11/21 11:05:30;;;;;;;0.30;0.10;;;8.40;99.90;;;;;;5054139;28;20029;-69
2022/11/21 11:08:09;;;;;;;3.83;1.02;;;8.40;99.90;;;;;;5036549;28;20024;-69
2022/11/21 11:11:01;;;;;;;0.80;0.47;;;8.30;99.90;;;;;;5054674;28;20033;-69
2022/11/21 11:16:16;;;;;;;1.50;0.30;;;8.30;99.90;;;;;;5054206;28;20033;-69
2022/11/21 11:19:12;;;;;;;0.52;0.20;;;8.30;99.90;;;;;;5036236;28;20135;-69
2022/11/21 11:21:42;;;;;;;0.38;0.20;;;8.30;99.90;;;;;;5054285;28;20028;-69
2022/11/21 11:24:08;;;;;;;2.15;0.50;;;8.10;99.90;;;;;;5036346;28;20388;-69
2022/11/21 11:26:48;;;;;;;0.10;0.03;;;8.00;99.90;;;;;;5035806;28;20029;-69
2022/11/21 11:29:20;;;;;;;1.10;0.40;;;7.90;99.90;;;;;;5053871;28;20039;-70
2022/11/21 11:31:58;;;;;;;1.58;0.20;;;7.80;99.90;;;;;;5053939;28;20028;-70
2022/11/21 11:34:40;;;;;;;3.10;0.20;;;7.70;99.90;;;;;;5053806;28;20044;-70
2022/11/21 11:37:25;;;;;;;0.68;0.10;;;7.70;99.90;;;;;;5053816;28;20111;-70
2022/11/21 11:40:15;;;;;;;1.23;0.20;;;7.70;99.90;;;;;;5035852;28;20033;-70
2022/11/21 11:48:34;;;;;;;3.60;0.15;;;7.80;99.90;;;;;;5062677;28;20108;-69
2022/11/21 11:51:05;;;;;;;2.20;0.22;;;7.90;99.90;;;;;;5063084;28;20017;-70
2022/11/21 11:53:45;;;;;;;0.98;0.30;;;8.00;99.90;;;;;;5062103;28;20112;-70
2022/11/21 11:56:19;;;;;;;0.38;0.20;;;8.00;99.90;;;;;;5045852;28;20028;-70
2022/11/21 11:58:52;;;;;;;3.30;0.50;;;8.00;99.90;;;;;;5045109;28;20075;-69
2022/11/21 12:01:20;;;;;;;3.13;0.30;;;8.10;99.90;;;;;;5043604;28;20048;-70
2022/11/21 12:03:56;;;;;;;2.17;0.10;;;8.00;99.90;;;;;;5061080;28;20369;-70
2022/11/21 12:06:28;;;;;;;1.67;0.13;;;8.00;99.90;;;;;;5041629;28;20052;-70
2022/11/21 12:09:28;;;;;;;3.95;0.20;;;7.90;99.90;;;;;;5059156;28;20025;-70
2022/11/21 12:12:10;;;;;;;1.25;0.52;;;7.90;99.90;;;;;;5025385;28;20117;-69
2022/11/21 12:17:47;;;;;;;1.48;0.30;;;7.80;99.90;;;;;;5058257;28;20083;-70
2022/11/21 12:20:27;;;;;;;6.72;1.33;;;7.70;99.90;;;;;;5041454;28;20036;-70
2022/11/21 12:22:55;;;;;;;2.08;0.50;;;7.60;99.90;;;;;;5041232;28;20025;-69
2022/11/21 12:25:29;;;;;;;3.00;0.30;;;7.60;99.90;;;;;;5032109;28;20021;-69
2022/11/21 12:27:56;;;;;;;4.40;0.30;;;7.60;99.90;;;;;;5040096;28;20116;-70
2022/11/21 12:30:43;;;;;;;1.60;0.22;;;7.60;99.90;;;;;;5039815;28;20040;-70
2022/11/21 12:33:20;;;;;;;0.60;0.43;;;7.60;99.90;;;;;;5039975;28;20140;-69
2022/11/21 12:36:07;;;;;;;1.33;0.28;;;7.60;99.90;;;;;;5039741;28;20404;-70
2022/11/21 12:38:40;;;;;;;2.65;0.20;;;7.70;99.90;;;;;;5056757;28;20036;-69
2022/11/21 12:42:48;;;;;;;1.70;0.32;;;7.70;99.90;;;;;;5056685;28;20033;-69
2022/11/21 12:44:08;;;;;;;0.82;0.40;;;7.60;99.90;;;;;;5056399;28;20033;-70
2022/11/21 12:46:48;;;;;;;2.25;0.38;;;7.70;99.90;;;;;;5056472;28;20029;-69
2022/11/21 12:55:36;;;;;;;3.70;0.60;;;7.50;99.90;;;;;;5032843;28;20033;-69
2022/11/21 12:58:14;;;;;;;0.57;0.30;;;7.50;99.90;;;;;;5056145;28;20108;-70
2022/11/21 13:01:05;;;;;;;0.57;0.57;;;7.50;99.90;;;;;;5038252;28;20040;-70
2022/11/21 13:03:55;;;;;;;1.65;0.60;;;7.60;99.90;;;;;;5038770;28;20283;-70
2022/11/21 13:06:24;;;;;;;3.60;0.63;;;7.60;99.90;;;;;;5056939;28;20029;-70
2022/11/21 13:08:53;;;;;;;0.45;0.22;;;7.70;99.90;;;;;;5038753;28;20029;-70
2022/11/21 13:11:58;;;;;;;1.30;0.22;;;8.20;99.90;;;;;;5057540;28;20028;-70
2022/11/21 13:14:45;;;;;;;0.70;0.20;;;8.50;99.90;;;;;;5056982;28;20029;-70
2022/11/21 13:17:27;;;;;;;1.90;0.35;;;8.40;99.90;;;;;;5040775;28;20025;-70
2022/11/21 13:20:00;;;;;;;1.58;0.43;;;8.60;99.90;;;;;;5059897;28;20108;-70
2022/11/21 13:22:35;;;;;;;0.82;0.43;;;8.50;99.90;;;;;;5059785;28;20029;-70
2022/11/21 13:25:10;;;;;;;4.30;0.93;;;8.70;99.90;;;;;;5058582;28;20468;-70
2022/11/21 13:27:40;;;;;;;4.97;0.40;;;8.60;99.90;;;;;;5039464;28;20028;-70
2022/11/21 13:30:06;;;;;;;1.30;0.45;;;8.40;99.90;;;;;;5038822;28;20029;-70
2022/11/21 13:32:42;;;;;;;0.90;0.43;;;8.40;99.90;;;;;;5038747;28;20486;-70
2022/11/21 13:35:20;;;;;;;1.58;0.50;;;8.20;99.90;;;;;;5038648;28;20485;-70
2022/11/21 13:37:48;;;;;;;1.00;0.45;;;8.10;99.90;;;;;;5055956;28;20107;-69
2022/11/21 13:40:26;;;;;;;3.97;0.32;;;7.90;99.90;;;;;;5037742;28;20484;-70
2022/11/21 13:43:22;;;;;;;2.17;0.50;;;7.80;99.90;;;;;;5055953;28;20029;-73
2022/11/21 13:45:51;;;;;;;1.70;0.43;;;7.80;99.90;;;;;;5056056;28;20025;-70
2022/11/21 13:48:17;;;;;;;;;;;7.80;99.90;;;;;;5038164;28;20035;-70
2022/11/21 13:51:19;;;;;;;4.18;0.77;;;7.80;99.90;;;;;;5057001;28;20000;-70
2022/11/21 13:54:03;;;;;;;3.30;0.40;;;7.80;99.90;;;;;;5039366;28;20117;-69
2022/11/21 13:57:03;;;;;;;1.83;0.30;;;7.80;99.90;;;;;;5057274;28;20032;-71
2022/11/21 13:59:49;;;;;;;4.07;0.70;;;7.80;99.90;;;;;;5060579;28;20033;-70
2022/11/21 14:02:41;;;;;;;1.40;0.28;;;7.80;99.90;;;;;;5038877;28;20033;-70
2022/11/21 14:05:45;;;;;;;2.67;1.00;;;7.80;99.90;;;;;;5001035;28;20107;-70
2022/11/21 14:08:17;;;;;;;2.67;0.40;;;7.90;99.90;;;;;;5037708;28;20033;-70
2022/11/21 14:10:44;;;;;;;0.85;0.63;;;7.90;99.90;;;;;;5055210;28;20056;-71
2022/11/21 14:13:32;;;;;;;1.13;0.30;;;7.90;99.90;;;;;;5055240;28;20017;-70
2022/11/21 14:16:06;;;;;;;3.63;0.40;;;7.90;99.90;;;;;;5054583;28;20029;-70
2022/11/21 14:18:34;;;;;;;2.20;0.38;;;7.80;99.90;;;;;;5054783;28;20114;-70
2022/11/21 14:21:02;;;;;;;1.17;0.98;;;7.90;99.90;;;;;;5054851;28;20024;-69
2022/11/21 14:23:31;;;;;;;4.88;0.90;;;7.90;99.90;;;;;;5037890;28;20134;-69
2022/11/21 14:26:17;;;;;;;2.00;1.33;;;8.00;99.90;;;;;;5054831;28;20060;-70
2022/11/21 14:28:42;;;;;;;0.98;0.40;;;8.00;99.90;;;;;;5055205;28;20024;-70
2022/11/21 14:31:11;;;;;;;5.18;0.80;;;7.90;99.90;;;;;;5036745;28;20491;-70
2022/11/21 14:33:43;;;;;;;1.88;0.63;;;7.80;99.90;;;;;;5036609;28;20492;-69
2022/11/21 14:36:21;;;;;;;3.65;0.68;;;7.60;99.90;;;;;;5036818;28;20024;-69
2022/11/21 14:38:51;;;;;;;1.52;0.52;;;7.50;99.90;;;;;;5055642;28;20108;-72
2022/11/21 14:41:23;;;;;;;1.98;0.60;;;7.40;99.90;;;;;;5037067;28;20110;-70
2022/11/21 14:43:57;;;;;;;0.73;0.50;;;7.30;99.90;;;;;;5055337;28;20053;-69
2022/11/21 14:46:36;;;;;;;2.78;1.25;;;7.20;99.90;;;;;;5037587;28;20457;-69
2022/11/21 14:49:23;;;;;;;1.90;0.70;;;7.10;99.90;;;;;;5055205;28;20032;-70
2022/11/21 14:52:09;;;;;;;2.33;0.70;;;7.00;99.90;;;;;;5036722;28;20021;-70
2022/11/21 14:54:48;;;;;;;3.15;0.50;;;6.90;99.90;;;;;;5037222;28;20048;-70
2022/11/21 14:57:37;;;;;;;1.90;0.80;;;6.80;99.90;;;;;;5054918;28;20020;-69
2022/11/21 15:00:05;;;;;;;0.98;0.60;;;6.80;99.90;;;;;;5054584;28;20064;-70
2022/11/21 15:02:33;;;;;;;2.30;0.50;;;6.70;99.90;;;;;;5054170;28;20100;-72
2022/11/21 15:05:06;;;;;;;2.72;0.60;;;6.60;99.90;;;;;;5036508;28;20036;-68
2022/11/21 15:07:42;;;;;;;4.13;0.60;;;6.60;99.90;;;;;;5054519;28;20477;-69
2022/11/21 15:10:16;;;;;;;2.88;1.05;;;6.50;99.90;;;;;;5036252;28;20036;-72
2022/11/21 15:13:10;;;;;;;2.92;1.15;;;6.50;99.90;;;;;;5054351;28;20040;-72
2022/11/21 15:15:42;;;;;;;2.70;0.63;;;6.40;99.90;;;;;;5054261;28;20143;-72
2022/11/21 15:18:29;;;;;;;1.85;0.50;;;6.30;99.90;;;;;;5038641;28;20053;-72
2022/11/21 15:20:58;;;;;;;1.85;0.50;;;6.20;99.90;;;;;;5040546;28;20033;-68
2022/11/21 15:23:25;;;;;;;4.28;0.80;;;6.10;99.90;;;;;;5040337;28;20025;-72
2022/11/21 15:25:51;;;;;;;4.72;0.60;;;5.90;99.90;;;;;;5057776;28;20036;-72
2022/11/21 15:28:17;;;;;;;2.58;0.43;;;5.80;99.90;;;;;;5039813;28;20025;-72
2022/11/21 15:30:46;;;;;;;1.27;0.47;;;5.80;99.90;;;;;;5040681;28;20031;-72
2022/11/21 15:33:12;;;;;;;2.78;0.82;;;5.70;99.90;;;;;;5057674;28;20384;-69
2022/11/21 15:35:39;;;;;;;6.05;0.50;;;5.60;99.90;;;;;;5040250;28;20040;-71
2022/11/21 15:38:18;;;;;;;4.25;0.45;;;5.50;99.90;;;;;;5039823;28;20405;-72
2022/11/21 15:41:02;;;;;;;4.22;0.80;;;5.40;99.90;;;;;;5057650;28;20030;-68
2022/11/21 15:43:37;;;;;;;3.03;0.85;;;5.30;99.90;;;;;;5039799;28;20074;-78
2022/11/21 15:46:10;;;;;;;2.13;0.50;;;5.10;99.90;;;;;;5040083;28;20493;-69
2022/11/21 15:48:36;;;;;;;3.08;0.65;;;5.00;99.90;;;;;;5057409;28;20476;-69
2022/11/21 15:51:01;;;;;;;2.58;0.65;;;4.90;99.90;;;;;;5040372;28;20120;-68
2022/11/21 15:53:27;;;;;;;1.88;1.00;;;4.70;99.90;;;;;;5057496;28;20469;-68
2022/11/21 15:55:53;;;;;;;1.38;1.00;;;4.60;99.90;;;;;;5057803;28;20571;-69
2022/11/21 15:58:18;;;;;;;6.15;1.00;;;4.50;99.90;;;;;;5057657;28;20107;-68
2022/11/21 16:00:44;;;;;;;2.15;0.65;;;4.40;99.90;;;;;;5039340;28;20507;-69
2022/11/21 16:03:10;;;;;;;3.30;1.20;;;4.30;99.90;;;;;;5058180;28;20033;-68
2022/11/21 16:05:37;;;;;;;7.65;1.20;;;4.20;99.90;;;;;;5057932;28;20108;-68
2022/11/21 16:08:03;;;;;;;2.05;0.90;;;4.10;99.90;;;;;;5060827;28;20061;-69
2022/11/21 16:10:29;;;;;;;12.15;2.00;;;4.00;99.90;;;;;;5062712;28;20483;-69
2022/11/21 16:12:55;;;;;;;20.90;1.80;;;3.90;99.90;;;;;;5043315;28;20029;-70
2022/11/21 16:15:20;;;;;;;3.55;1.30;;;3.80;99.90;;;;;;5060079;28;20358;-69
2022/11/21 16:17:46;;;;;;;4.57;1.38;;;3.80;99.90;;;;;;5040662;28;20167;-69
2022/11/21 16:20:12;;;;;;;5.03;2.17;;;3.70;99.90;;;;;;5040896;28;20140;-69
2022/11/21 16:22:38;;;;;;;7.68;1.40;;;3.60;99.90;;;;;;5057909;28;20028;-68
2022/11/21 16:25:04;;;;;;;3.25;1.20;;;3.60;99.90;;;;;;5058104;28;20029;-69
2022/11/21 16:27:32;;;;;;;6.05;1.15;;;3.50;99.90;;;;;;5057360;28;20025;-68
2022/11/21 16:29:58;;;;;;;2.25;1.17;;;3.50;99.90;;;;;;5056994;28;20053;-68
2022/11/21 16:32:26;;;;;;;3.63;0.82;;;3.50;99.90;;;;;;5058856;28;20437;-69
2022/11/21 16:34:57;;;;;;;7.28;1.48;;;3.40;99.90;;;;;;5041103;28;20029;-70
2022/11/21 16:37:23;;;;;;;7.75;2.05;;;3.40;99.90;;;;;;5058436;28;20408;-68
2022/11/21 16:39:50;;;;;;;6.72;3.22;;;3.30;99.90;;;;;;5058423;28;20072;-68
2022/11/21 16:42:18;;;;;;;7.50;3.25;;;3.30;99.90;;;;;;5059225;28;20035;-67
2022/11/21 16:44:44;;;;;;;6.53;2.72;;;3.10;99.90;;;;;;5040176;28;20461;-68
2022/11/21 16:47:12;;;;;;;8.63;2.33;;;3.10;99.90;;;;;;5057627;28;20025;-70
2022/11/21 16:49:41;;;;;;;8.25;3.42;;;3.00;99.90;;;;;;5039519;28;20044;-69
2022/11/21 16:52:08;;;;;;;15.52;6.95;;;3.00;99.90;;;;;;5040850;28;20128;-70
2022/11/21 16:54:34;;;;;;;11.60;4.43;;;3.00;99.90;;;;;;5056963;28;20040;-69
2022/11/21 16:57:00;;;;;;;12.40;4.95;;;3.00;99.90;;;;;;5039318;28;20457;-70
2022/11/21 16:59:26;;;;;;;11.82;4.75;;;2.90;99.90;;;;;;5059258;28;20043;-69
2022/11/21 17:01:52;;;;;;;16.27;3.65;;;2.90;99.90;;;;;;5060926;28;20060;-72
2022/11/21 17:04:18;;;;;;;9.88;3.95;;;2.80;99.90;;;;;;5060485;28;20465;-72
2022/11/21 17:06:44;;;;;;;7.95;4.38;;;2.70;99.90;;;;;;5041890;28;20021;-72
2022/11/21 17:09:10;;;;;;;12.18;3.63;;;2.60;99.90;;;;;;5044949;28;20029;-73